sensor_id;sensor_type;location;lat;lon;timestamp;P1;durP1;ratioP1;P2;durP2;ratioP2
6121;SDS011;3091;51.506;7.672;2023-05-14T00:01:47;16.00;;;15.40;;
6121;SDS011;3091;51.506;7.672;2023-05-14T00:04:15;16.83;;;16.03;;
6121;SDS011;3091;51.506;7.672;2023-05-14T00:06:43;16.00;;;15.40;;
6121;SDS011;3091;51.506;7.672;2023-05-14T00:09:10;16.00;;;15.40;;
6121;SDS011;3091;51.506;7.672;2023-05-14T00:11:38;19.03;;;18.13;;
6121;SDS011;3091;51.506;7.672;2023-05-14T00:14:04;17.03;;;16.23;;
6121;SDS011;3091;51.506;7.672;2023-05-14T00:16:30;15.77;;;15.13;;
6121;SDS011;3091;51.506;7.672;2023-05-14T00:18:56;16.30;;;15.60;;
6121;SDS011;3091;51.506;7.672;2023-05-14T00:21:22;15.43;;;14.83;;
6121;SDS011;3091;51.506;7.672;2023-05-14T00:23:48;17.07;;;16.30;;
6121;SDS011;3091;51.506;7.672;2023-05-14T00:26:14;14.10;;;13.60;;
6121;SDS011;3091;51.506;7.672;2023-05-14T00:28:40;14.60;;;14.00;;
6121;SDS011;3091;51.506;7.672;2023-05-14T00:31:06;15.87;;;15.27;;
6121;SDS011;3091;51.506;7.672;2023-05-14T00:33:32;15.23;;;14.53;;
6121;SDS011;3091;51.506;7.672;2023-05-14T00:35:59;16.03;;;15.23;;
6121;SDS011;3091;51.506;7.672;2023-05-14T00:38:25;17.93;;;17.10;;
6121;SDS011;3091;51.506;7.672;2023-05-14T00:40:52;15.50;;;14.90;;
6121;SDS011;3091;51.506;7.672;2023-05-14T00:43:18;15.90;;;15.30;;
6121;SDS011;3091;51.506;7.672;2023-05-14T00:45:45;16.30;;;15.70;;
6121;SDS011;3091;51.506;7.672;2023-05-14T00:48:12;16.30;;;15.70;;
6121;SDS011;3091;51.506;7.672;2023-05-14T00:50:38;18.07;;;17.37;;
6121;SDS011;3091;51.506;7.672;2023-05-14T00:53:07;16.67;;;16.07;;
6121;SDS011;3091;51.506;7.672;2023-05-14T00:55:35;16.97;;;16.20;;
6121;SDS011;3091;51.506;7.672;2023-05-14T00:58:03;16.60;;;16.00;;
6121;SDS011;3091;51.506;7.672;2023-05-14T01:00:31;16.17;;;15.57;;
6121;SDS011;3091;51.506;7.672;2023-05-14T01:02:57;18.60;;;17.80;;
6121;SDS011;3091;51.506;7.672;2023-05-14T01:05:26;16.80;;;16.20;;
6121;SDS011;3091;51.506;7.672;2023-05-14T01:07:56;18.33;;;17.43;;
6121;SDS011;3091;51.506;7.672;2023-05-14T01:13:12;18.40;;;17.60;;
6121;SDS011;3091;51.506;7.672;2023-05-14T01:15:42;17.57;;;16.47;;
6121;SDS011;3091;51.506;7.672;2023-05-14T01:18:09;15.40;;;14.80;;
6121;SDS011;3091;51.506;7.672;2023-05-14T01:20:35;15.77;;;15.07;;
6121;SDS011;3091;51.506;7.672;2023-05-14T01:23:02;15.33;;;14.53;;
6121;SDS011;3091;51.506;7.672;2023-05-14T01:25:29;15.63;;;14.90;;
6121;SDS011;3091;51.506;7.672;2023-05-14T01:28:08;14.00;;;13.50;;
6121;SDS011;3091;51.506;7.672;2023-05-14T01:33:12;14.20;;;13.70;;
6121;SDS011;3091;51.506;7.672;2023-05-14T01:35:40;15.40;;;14.80;;
6121;SDS011;3091;51.506;7.672;2023-05-14T01:38:06;15.37;;;14.70;;
6121;SDS011;3091;51.506;7.672;2023-05-14T01:40:33;14.67;;;14.17;;
6121;SDS011;3091;51.506;7.672;2023-05-14T01:43:01;14.60;;;14.07;;
6121;SDS011;3091;51.506;7.672;2023-05-14T01:45:27;16.97;;;16.10;;
6121;SDS011;3091;51.506;7.672;2023-05-14T01:47:53;14.13;;;13.63;;
6121;SDS011;3091;51.506;7.672;2023-05-14T01:50:19;15.10;;;14.50;;
6121;SDS011;3091;51.506;7.672;2023-05-14T01:52:45;15.40;;;14.80;;
6121;SDS011;3091;51.506;7.672;2023-05-14T01:55:12;15.50;;;14.90;;
6121;SDS011;3091;51.506;7.672;2023-05-14T01:57:39;16.30;;;15.60;;
6121;SDS011;3091;51.506;7.672;2023-05-14T02:00:05;17.83;;;17.03;;
6121;SDS011;3091;51.506;7.672;2023-05-14T02:02:31;21.30;;;20.20;;
6121;SDS011;3091;51.506;7.672;2023-05-14T02:04:57;17.70;;;16.90;;
6121;SDS011;3091;51.506;7.672;2023-05-14T02:07:23;18.53;;;17.73;;
6121;SDS011;3091;51.506;7.672;2023-05-14T02:09:49;19.93;;;19.13;;
6121;SDS011;3091;51.506;7.672;2023-05-14T02:12:15;20.63;;;19.37;;
6121;SDS011;3091;51.506;7.672;2023-05-14T02:14:41;19.30;;;18.50;;
6121;SDS011;3091;51.506;7.672;2023-05-14T02:17:07;18.50;;;17.70;;
6121;SDS011;3091;51.506;7.672;2023-05-14T02:19:33;18.60;;;17.90;;
6121;SDS011;3091;51.506;7.672;2023-05-14T02:21:59;18.37;;;17.67;;
6121;SDS011;3091;51.506;7.672;2023-05-14T02:24:25;17.50;;;16.70;;
6121;SDS011;3091;51.506;7.672;2023-05-14T02:26:51;20.33;;;19.30;;
6121;SDS011;3091;51.506;7.672;2023-05-14T02:29:17;20.10;;;19.00;;
6121;SDS011;3091;51.506;7.672;2023-05-14T02:31:43;18.80;;;17.90;;
6121;SDS011;3091;51.506;7.672;2023-05-14T02:34:09;19.43;;;18.53;;
6121;SDS011;3091;51.506;7.672;2023-05-14T02:36:35;19.07;;;18.27;;
6121;SDS011;3091;51.506;7.672;2023-05-14T02:39:01;18.40;;;17.60;;
6121;SDS011;3091;51.506;7.672;2023-05-14T02:41:28;18.70;;;17.90;;
6121;SDS011;3091;51.506;7.672;2023-05-14T02:43:54;18.50;;;17.70;;
6121;SDS011;3091;51.506;7.672;2023-05-14T02:46:20;20.83;;;19.93;;
6121;SDS011;3091;51.506;7.672;2023-05-14T02:48:46;19.10;;;18.20;;
6121;SDS011;3091;51.506;7.672;2023-05-14T02:51:12;19.50;;;18.60;;
6121;SDS011;3091;51.506;7.672;2023-05-14T02:53:38;19.73;;;18.77;;
6121;SDS011;3091;51.506;7.672;2023-05-14T02:56:04;20.17;;;19.20;;
6121;SDS011;3091;51.506;7.672;2023-05-14T02:58:32;19.90;;;19.00;;
6121;SDS011;3091;51.506;7.672;2023-05-14T03:00:58;21.03;;;20.03;;
6121;SDS011;3091;51.506;7.672;2023-05-14T03:03:24;23.53;;;22.27;;
6121;SDS011;3091;51.506;7.672;2023-05-14T03:05:50;22.40;;;21.27;;
6121;SDS011;3091;51.506;7.672;2023-05-14T03:08:18;22.20;;;21.10;;
6121;SDS011;3091;51.506;7.672;2023-05-14T03:10:44;21.17;;;20.17;;
6121;SDS011;3091;51.506;7.672;2023-05-14T03:13:10;21.30;;;20.30;;
6121;SDS011;3091;51.506;7.672;2023-05-14T03:15:36;22.10;;;21.00;;
6121;SDS011;3091;51.506;7.672;2023-05-14T03:18:02;22.40;;;21.30;;
6121;SDS011;3091;51.506;7.672;2023-05-14T03:20:28;23.60;;;21.97;;
6121;SDS011;3091;51.506;7.672;2023-05-14T03:22:54;22.20;;;21.10;;
6121;SDS011;3091;51.506;7.672;2023-05-14T03:25:20;22.13;;;21.03;;
6121;SDS011;3091;51.506;7.672;2023-05-14T03:27:46;21.73;;;20.63;;
6121;SDS011;3091;51.506;7.672;2023-05-14T03:30:12;21.70;;;20.70;;
6121;SDS011;3091;51.506;7.672;2023-05-14T03:32:38;22.50;;;21.40;;
6121;SDS011;3091;51.506;7.672;2023-05-14T03:35:07;23.50;;;22.40;;
6121;SDS011;3091;51.506;7.672;2023-05-14T03:37:33;22.33;;;21.23;;
6121;SDS011;3091;51.506;7.672;2023-05-14T03:40:00;21.63;;;20.53;;
6121;SDS011;3091;51.506;7.672;2023-05-14T03:42:26;21.70;;;20.60;;
6121;SDS011;3091;51.506;7.672;2023-05-14T03:44:54;21.17;;;20.07;;
6121;SDS011;3091;51.506;7.672;2023-05-14T03:47:20;21.50;;;20.40;;
6121;SDS011;3091;51.506;7.672;2023-05-14T03:49:48;21.10;;;20.10;;
6121;SDS011;3091;51.506;7.672;2023-05-14T03:52:14;21.50;;;20.40;;
6121;SDS011;3091;51.506;7.672;2023-05-14T03:54:40;21.80;;;20.70;;
6121;SDS011;3091;51.506;7.672;2023-05-14T03:57:06;23.37;;;22.17;;
6121;SDS011;3091;51.506;7.672;2023-05-14T03:59:32;22.30;;;21.20;;
6121;SDS011;3091;51.506;7.672;2023-05-14T04:01:58;22.37;;;21.27;;
6121;SDS011;3091;51.506;7.672;2023-05-14T04:04:24;21.70;;;20.60;;
6121;SDS011;3091;51.506;7.672;2023-05-14T04:06:50;22.00;;;20.90;;
6121;SDS011;3091;51.506;7.672;2023-05-14T04:09:19;22.07;;;20.97;;
6121;SDS011;3091;51.506;7.672;2023-05-14T04:11:45;22.17;;;21.07;;
6121;SDS011;3091;51.506;7.672;2023-05-14T04:14:11;25.03;;;23.23;;
6121;SDS011;3091;51.506;7.672;2023-05-14T04:16:37;21.87;;;20.87;;
6121;SDS011;3091;51.506;7.672;2023-05-14T04:19:03;22.87;;;21.60;;
6121;SDS011;3091;51.506;7.672;2023-05-14T04:21:29;24.00;;;22.57;;
6121;SDS011;3091;51.506;7.672;2023-05-14T04:23:55;20.43;;;19.53;;
6121;SDS011;3091;51.506;7.672;2023-05-14T04:26:21;19.17;;;18.27;;
6121;SDS011;3091;51.506;7.672;2023-05-14T04:28:47;19.10;;;18.30;;
6121;SDS011;3091;51.506;7.672;2023-05-14T04:31:14;19.87;;;18.97;;
6121;SDS011;3091;51.506;7.672;2023-05-14T04:33:40;18.50;;;17.70;;
6121;SDS011;3091;51.506;7.672;2023-05-14T04:36:06;17.10;;;16.40;;
6121;SDS011;3091;51.506;7.672;2023-05-14T04:38:32;17.87;;;17.07;;
6121;SDS011;3091;51.506;7.672;2023-05-14T04:40:58;15.40;;;14.80;;
6121;SDS011;3091;51.506;7.672;2023-05-14T04:43:24;18.17;;;17.37;;
6121;SDS011;3091;51.506;7.672;2023-05-14T04:45:50;22.20;;;21.10;;
6121;SDS011;3091;51.506;7.672;2023-05-14T04:48:17;26.80;;;25.40;;
6121;SDS011;3091;51.506;7.672;2023-05-14T04:50:43;30.20;;;28.70;;
6121;SDS011;3091;51.506;7.672;2023-05-14T04:53:09;36.30;;;34.50;;
6121;SDS011;3091;51.506;7.672;2023-05-14T04:55:35;38.73;;;36.73;;
6121;SDS011;3091;51.506;7.672;2023-05-14T04:58:01;38.03;;;36.30;;
6121;SDS011;3091;51.506;7.672;2023-05-14T05:00:27;35.60;;;34.00;;
6121;SDS011;3091;51.506;7.672;2023-05-14T05:02:54;38.67;;;36.87;;
6121;SDS011;3091;51.506;7.672;2023-05-14T05:05:20;33.43;;;31.83;;
6121;SDS011;3091;51.506;7.672;2023-05-14T05:07:49;30.80;;;29.60;;
6121;SDS011;3091;51.506;7.672;2023-05-14T05:10:15;27.50;;;26.40;;
6121;SDS011;3091;51.506;7.672;2023-05-14T05:12:41;23.67;;;22.80;;
6121;SDS011;3091;51.506;7.672;2023-05-14T05:15:07;18.20;;;17.60;;
6121;SDS011;3091;51.506;7.672;2023-05-14T05:17:33;16.00;;;15.43;;
6121;SDS011;3091;51.506;7.672;2023-05-14T05:20:00;14.50;;;13.90;;
6121;SDS011;3091;51.506;7.672;2023-05-14T05:22:26;12.60;;;12.20;;
6121;SDS011;3091;51.506;7.672;2023-05-14T05:24:52;12.80;;;12.20;;
6121;SDS011;3091;51.506;7.672;2023-05-14T05:27:18;10.70;;;10.40;;
6121;SDS011;3091;51.506;7.672;2023-05-14T05:29:46;11.03;;;10.63;;
6121;SDS011;3091;51.506;7.672;2023-05-14T05:32:12;12.50;;;12.00;;
6121;SDS011;3091;51.506;7.672;2023-05-14T05:34:38;10.87;;;10.57;;
6121;SDS011;3091;51.506;7.672;2023-05-14T05:37:04;10.93;;;10.63;;
6121;SDS011;3091;51.506;7.672;2023-05-14T05:39:30;10.57;;;10.27;;
6121;SDS011;3091;51.506;7.672;2023-05-14T05:41:58;10.90;;;10.60;;
6121;SDS011;3091;51.506;7.672;2023-05-14T05:44:25;12.20;;;11.70;;
6121;SDS011;3091;51.506;7.672;2023-05-14T05:46:51;10.60;;;10.30;;
6121;SDS011;3091;51.506;7.672;2023-05-14T05:49:20;11.07;;;10.73;;
6121;SDS011;3091;51.506;7.672;2023-05-14T05:51:46;11.10;;;10.70;;
6121;SDS011;3091;51.506;7.672;2023-05-14T05:54:11;10.17;;;9.87;;
6121;SDS011;3091;51.506;7.672;2023-05-14T05:56:37;11.67;;;11.17;;
6121;SDS011;3091;51.506;7.672;2023-05-14T05:59:03;11.10;;;10.70;;
6121;SDS011;3091;51.506;7.672;2023-05-14T06:01:29;11.90;;;11.40;;
6121;SDS011;3091;51.506;7.672;2023-05-14T06:03:58;11.70;;;11.30;;
6121;SDS011;3091;51.506;7.672;2023-05-14T06:06:24;11.70;;;11.30;;
6121;SDS011;3091;51.506;7.672;2023-05-14T06:08:50;11.87;;;11.47;;
6121;SDS011;3091;51.506;7.672;2023-05-14T06:11:16;13.30;;;12.80;;
6121;SDS011;3091;51.506;7.672;2023-05-14T06:13:42;11.43;;;11.03;;
6121;SDS011;3091;51.506;7.672;2023-05-14T06:16:08;10.80;;;10.50;;
6121;SDS011;3091;51.506;7.672;2023-05-14T06:18:34;10.77;;;10.37;;
6121;SDS011;3091;51.506;7.672;2023-05-14T06:21:00;9.33;;;9.03;;
6121;SDS011;3091;51.506;7.672;2023-05-14T06:23:26;10.20;;;9.80;;
6121;SDS011;3091;51.506;7.672;2023-05-14T06:25:52;8.80;;;8.60;;
6121;SDS011;3091;51.506;7.672;2023-05-14T06:28:21;9.53;;;9.23;;
6121;SDS011;3091;51.506;7.672;2023-05-14T06:30:50;10.13;;;9.73;;
6121;SDS011;3091;51.506;7.672;2023-05-14T06:33:17;9.10;;;8.80;;
6121;SDS011;3091;51.506;7.672;2023-05-14T06:35:45;8.80;;;8.60;;
6121;SDS011;3091;51.506;7.672;2023-05-14T06:38:11;9.30;;;9.00;;
6121;SDS011;3091;51.506;7.672;2023-05-14T06:40:37;11.00;;;10.40;;
6121;SDS011;3091;51.506;7.672;2023-05-14T06:43:03;8.70;;;8.50;;
6121;SDS011;3091;51.506;7.672;2023-05-14T06:45:30;8.97;;;8.67;;
6121;SDS011;3091;51.506;7.672;2023-05-14T06:47:56;9.00;;;8.70;;
6121;SDS011;3091;51.506;7.672;2023-05-14T06:50:22;9.30;;;9.00;;
6121;SDS011;3091;51.506;7.672;2023-05-14T06:52:48;8.90;;;8.70;;
6121;SDS011;3091;51.506;7.672;2023-05-14T06:55:17;8.80;;;8.60;;
6121;SDS011;3091;51.506;7.672;2023-05-14T06:57:43;11.30;;;10.90;;
6121;SDS011;3091;51.506;7.672;2023-05-14T07:00:09;10.60;;;10.30;;
6121;SDS011;3091;51.506;7.672;2023-05-14T07:02:35;11.20;;;10.80;;
6121;SDS011;3091;51.506;7.672;2023-05-14T07:05:01;10.53;;;10.23;;
6121;SDS011;3091;51.506;7.672;2023-05-14T07:07:27;10.40;;;10.10;;
6121;SDS011;3091;51.506;7.672;2023-05-14T07:09:53;10.50;;;10.20;;
6121;SDS011;3091;51.506;7.672;2023-05-14T07:12:19;10.97;;;10.63;;
6121;SDS011;3091;51.506;7.672;2023-05-14T07:14:45;10.70;;;10.40;;
6121;SDS011;3091;51.506;7.672;2023-05-14T07:17:11;10.30;;;10.00;;
6121;SDS011;3091;51.506;7.672;2023-05-14T07:19:37;10.80;;;10.50;;
6121;SDS011;3091;51.506;7.672;2023-05-14T07:22:03;10.63;;;10.33;;
6121;SDS011;3091;51.506;7.672;2023-05-14T07:24:29;11.30;;;10.90;;
6121;SDS011;3091;51.506;7.672;2023-05-14T07:26:55;10.90;;;10.60;;
6121;SDS011;3091;51.506;7.672;2023-05-14T07:29:23;10.70;;;10.40;;
6121;SDS011;3091;51.506;7.672;2023-05-14T07:31:50;10.00;;;9.70;;
6121;SDS011;3091;51.506;7.672;2023-05-14T07:34:16;9.80;;;9.50;;
6121;SDS011;3091;51.506;7.672;2023-05-14T07:36:42;10.77;;;10.47;;
6121;SDS011;3091;51.506;7.672;2023-05-14T07:39:08;9.33;;;9.03;;
6121;SDS011;3091;51.506;7.672;2023-05-14T07:41:34;11.13;;;10.83;;
6121;SDS011;3091;51.506;7.672;2023-05-14T07:44:00;11.27;;;10.87;;
6121;SDS011;3091;51.506;7.672;2023-05-14T07:46:26;11.50;;;11.10;;
6121;SDS011;3091;51.506;7.672;2023-05-14T07:48:52;11.27;;;10.90;;
6121;SDS011;3091;51.506;7.672;2023-05-14T07:51:18;12.23;;;11.83;;
6121;SDS011;3091;51.506;7.672;2023-05-14T07:53:44;11.23;;;10.87;;
6121;SDS011;3091;51.506;7.672;2023-05-14T07:56:10;10.30;;;10.00;;
6121;SDS011;3091;51.506;7.672;2023-05-14T07:58:36;10.23;;;9.83;;
6121;SDS011;3091;51.506;7.672;2023-05-14T08:01:02;9.50;;;9.20;;
6121;SDS011;3091;51.506;7.672;2023-05-14T08:03:31;9.60;;;9.30;;
6121;SDS011;3091;51.506;7.672;2023-05-14T08:05:57;9.53;;;9.23;;
6121;SDS011;3091;51.506;7.672;2023-05-14T08:08:23;11.17;;;10.80;;
6121;SDS011;3091;51.506;7.672;2023-05-14T08:10:51;12.17;;;11.67;;
6121;SDS011;3091;51.506;7.672;2023-05-14T08:13:17;12.07;;;11.57;;
6121;SDS011;3091;51.506;7.672;2023-05-14T08:15:45;11.50;;;11.10;;
6121;SDS011;3091;51.506;7.672;2023-05-14T08:18:11;10.90;;;10.60;;
6121;SDS011;3091;51.506;7.672;2023-05-14T08:20:37;9.77;;;9.47;;
6121;SDS011;3091;51.506;7.672;2023-05-14T08:23:03;9.30;;;9.00;;
6121;SDS011;3091;51.506;7.672;2023-05-14T08:25:33;9.93;;;9.53;;
6121;SDS011;3091;51.506;7.672;2023-05-14T08:27:59;11.40;;;11.00;;
6121;SDS011;3091;51.506;7.672;2023-05-14T08:30:27;10.90;;;10.60;;
6121;SDS011;3091;51.506;7.672;2023-05-14T08:32:53;10.93;;;10.63;;
6121;SDS011;3091;51.506;7.672;2023-05-14T08:35:19;11.70;;;11.30;;
6121;SDS011;3091;51.506;7.672;2023-05-14T08:37:45;9.63;;;9.33;;
6121;SDS011;3091;51.506;7.672;2023-05-14T08:40:12;9.70;;;9.40;;
6121;SDS011;3091;51.506;7.672;2023-05-14T08:42:38;9.73;;;9.43;;
6121;SDS011;3091;51.506;7.672;2023-05-14T08:45:05;9.50;;;9.20;;
6121;SDS011;3091;51.506;7.672;2023-05-14T08:47:32;11.50;;;11.10;;
6121;SDS011;3091;51.506;7.672;2023-05-14T08:50:03;11.70;;;11.30;;
6121;SDS011;3091;51.506;7.672;2023-05-14T08:52:29;11.60;;;11.20;;
6121;SDS011;3091;51.506;7.672;2023-05-14T08:54:56;11.40;;;11.00;;
6121;SDS011;3091;51.506;7.672;2023-05-14T08:57:24;11.10;;;10.80;;
6121;SDS011;3091;51.506;7.672;2023-05-14T08:59:50;12.47;;;12.03;;
6121;SDS011;3091;51.506;7.672;2023-05-14T09:02:16;11.70;;;11.30;;
6121;SDS011;3091;51.506;7.672;2023-05-14T09:04:45;10.33;;;9.93;;
6121;SDS011;3091;51.506;7.672;2023-05-14T09:07:12;9.83;;;9.53;;
6121;SDS011;3091;51.506;7.672;2023-05-14T09:09:38;10.70;;;10.30;;
6121;SDS011;3091;51.506;7.672;2023-05-14T09:12:04;10.20;;;9.90;;
6121;SDS011;3091;51.506;7.672;2023-05-14T09:14:31;11.40;;;11.00;;
6121;SDS011;3091;51.506;7.672;2023-05-14T09:17:00;11.20;;;10.90;;
6121;SDS011;3091;51.506;7.672;2023-05-14T09:19:26;11.20;;;10.90;;
6121;SDS011;3091;51.506;7.672;2023-05-14T09:21:54;11.40;;;11.00;;
6121;SDS011;3091;51.506;7.672;2023-05-14T09:24:22;11.67;;;11.30;;
6121;SDS011;3091;51.506;7.672;2023-05-14T09:26:49;11.60;;;11.20;;
6121;SDS011;3091;51.506;7.672;2023-05-14T09:29:15;11.10;;;10.80;;
6121;SDS011;3091;51.506;7.672;2023-05-14T09:31:41;11.50;;;11.10;;
6121;SDS011;3091;51.506;7.672;2023-05-14T09:34:07;11.80;;;11.40;;
6121;SDS011;3091;51.506;7.672;2023-05-14T09:36:33;11.53;;;11.13;;
6121;SDS011;3091;51.506;7.672;2023-05-14T09:39:00;11.23;;;10.93;;
6121;SDS011;3091;51.506;7.672;2023-05-14T09:41:28;11.60;;;11.20;;
6121;SDS011;3091;51.506;7.672;2023-05-14T09:43:54;11.43;;;11.10;;
6121;SDS011;3091;51.506;7.672;2023-05-14T09:46:21;11.23;;;10.93;;
6121;SDS011;3091;51.506;7.672;2023-05-14T09:48:47;11.10;;;10.80;;
6121;SDS011;3091;51.506;7.672;2023-05-14T09:51:15;11.00;;;10.70;;
6121;SDS011;3091;51.506;7.672;2023-05-14T09:53:42;11.70;;;11.30;;
6121;SDS011;3091;51.506;7.672;2023-05-14T09:56:08;10.23;;;9.93;;
6121;SDS011;3091;51.506;7.672;2023-05-14T09:58:35;10.30;;;10.00;;
6121;SDS011;3091;51.506;7.672;2023-05-14T10:01:01;10.40;;;10.10;;
6121;SDS011;3091;51.506;7.672;2023-05-14T10:03:28;10.50;;;10.20;;
6121;SDS011;3091;51.506;7.672;2023-05-14T10:05:55;10.50;;;10.20;;
6121;SDS011;3091;51.506;7.672;2023-05-14T10:08:23;11.30;;;11.00;;
6121;SDS011;3091;51.506;7.672;2023-05-14T10:10:53;11.90;;;11.50;;
6121;SDS011;3091;51.506;7.672;2023-05-14T10:13:21;11.80;;;11.40;;
6121;SDS011;3091;51.506;7.672;2023-05-14T10:15:51;11.70;;;11.30;;
6121;SDS011;3091;51.506;7.672;2023-05-14T10:18:18;11.97;;;11.57;;
6121;SDS011;3091;51.506;7.672;2023-05-14T10:20:49;11.83;;;11.43;;
6121;SDS011;3091;51.506;7.672;2023-05-14T10:23:18;11.70;;;11.30;;
6121;SDS011;3091;51.506;7.672;2023-05-14T10:25:44;11.57;;;11.17;;
6121;SDS011;3091;51.506;7.672;2023-05-14T10:28:10;12.07;;;11.67;;
6121;SDS011;3091;51.506;7.672;2023-05-14T10:30:42;11.70;;;11.30;;
6121;SDS011;3091;51.506;7.672;2023-05-14T10:33:11;12.10;;;11.70;;
6121;SDS011;3091;51.506;7.672;2023-05-14T10:38:26;11.40;;;11.10;;
6121;SDS011;3091;51.506;7.672;2023-05-14T10:41:09;9.60;;;9.30;;
6121;SDS011;3091;51.506;7.672;2023-05-14T10:43:36;9.77;;;9.47;;
6121;SDS011;3091;51.506;7.672;2023-05-14T10:46:02;10.13;;;9.83;;
6121;SDS011;3091;51.506;7.672;2023-05-14T10:48:29;10.13;;;9.83;;
6121;SDS011;3091;51.506;7.672;2023-05-14T10:50:55;10.70;;;10.40;;
6121;SDS011;3091;51.506;7.672;2023-05-14T10:53:31;12.70;;;12.30;;
6121;SDS011;3091;51.506;7.672;2023-05-14T10:56:01;12.30;;;11.90;;
6121;SDS011;3091;51.506;7.672;2023-05-14T10:58:29;11.90;;;11.50;;
6121;SDS011;3091;51.506;7.672;2023-05-14T11:00:58;11.97;;;11.57;;
6121;SDS011;3091;51.506;7.672;2023-05-14T11:03:27;11.80;;;11.40;;
6121;SDS011;3091;51.506;7.672;2023-05-14T11:05:54;10.17;;;9.87;;
6121;SDS011;3091;51.506;7.672;2023-05-14T11:08:20;11.13;;;10.73;;
6121;SDS011;3091;51.506;7.672;2023-05-14T11:10:47;10.30;;;10.00;;
6121;SDS011;3091;51.506;7.672;2023-05-14T11:13:14;10.63;;;10.33;;
6121;SDS011;3091;51.506;7.672;2023-05-14T11:15:42;10.27;;;9.97;;
6121;SDS011;3091;51.506;7.672;2023-05-14T11:18:12;10.50;;;10.20;;
6121;SDS011;3091;51.506;7.672;2023-05-14T11:20:38;12.10;;;11.70;;
6121;SDS011;3091;51.506;7.672;2023-05-14T11:23:07;12.13;;;11.73;;
6121;SDS011;3091;51.506;7.672;2023-05-14T11:25:33;12.70;;;12.00;;
6121;SDS011;3091;51.506;7.672;2023-05-14T11:27:59;11.67;;;11.27;;
6121;SDS011;3091;51.506;7.672;2023-05-14T11:30:25;11.80;;;11.40;;
6121;SDS011;3091;51.506;7.672;2023-05-14T11:32:55;10.80;;;10.50;;
6121;SDS011;3091;51.506;7.672;2023-05-14T11:35:21;10.50;;;10.20;;
6121;SDS011;3091;51.506;7.672;2023-05-14T11:37:51;10.23;;;9.93;;
6121;SDS011;3091;51.506;7.672;2023-05-14T11:40:17;9.70;;;9.40;;
6121;SDS011;3091;51.506;7.672;2023-05-14T11:42:43;11.00;;;10.60;;
6121;SDS011;3091;51.506;7.672;2023-05-14T11:45:10;10.47;;;10.17;;
6121;SDS011;3091;51.506;7.672;2023-05-14T11:47:36;10.60;;;10.30;;
6121;SDS011;3091;51.506;7.672;2023-05-14T11:50:03;11.43;;;11.03;;
6121;SDS011;3091;51.506;7.672;2023-05-14T11:52:29;12.23;;;11.83;;
6121;SDS011;3091;51.506;7.672;2023-05-14T11:54:55;12.43;;;12.03;;
6121;SDS011;3091;51.506;7.672;2023-05-14T11:57:21;11.90;;;11.50;;
6121;SDS011;3091;51.506;7.672;2023-05-14T11:59:48;12.43;;;12.03;;
6121;SDS011;3091;51.506;7.672;2023-05-14T12:02:14;11.73;;;11.33;;
6121;SDS011;3091;51.506;7.672;2023-05-14T12:04:41;11.70;;;11.30;;
6121;SDS011;3091;51.506;7.672;2023-05-14T12:07:08;11.90;;;11.50;;
6121;SDS011;3091;51.506;7.672;2023-05-14T12:09:35;11.20;;;10.90;;
6121;SDS011;3091;51.506;7.672;2023-05-14T12:12:06;11.93;;;11.53;;
6121;SDS011;3091;51.506;7.672;2023-05-14T12:14:35;11.70;;;11.30;;
6121;SDS011;3091;51.506;7.672;2023-05-14T12:17:01;12.20;;;11.80;;
6121;SDS011;3091;51.506;7.672;2023-05-14T12:19:28;10.60;;;10.30;;
6121;SDS011;3091;51.506;7.672;2023-05-14T12:21:54;10.03;;;9.73;;
6121;SDS011;3091;51.506;7.672;2023-05-14T12:24:21;11.67;;;11.27;;
6121;SDS011;3091;51.506;7.672;2023-05-14T12:26:47;10.30;;;10.00;;
6121;SDS011;3091;51.506;7.672;2023-05-14T12:29:14;10.50;;;10.20;;
6121;SDS011;3091;51.506;7.672;2023-05-14T12:31:50;10.67;;;10.37;;
6121;SDS011;3091;51.506;7.672;2023-05-14T12:34:16;11.80;;;11.40;;
6121;SDS011;3091;51.506;7.672;2023-05-14T12:36:42;11.53;;;11.13;;
6121;SDS011;3091;51.506;7.672;2023-05-14T12:39:08;11.80;;;11.40;;
6121;SDS011;3091;51.506;7.672;2023-05-14T12:41:35;11.80;;;11.40;;
6121;SDS011;3091;51.506;7.672;2023-05-14T12:44:02;11.50;;;11.13;;
6121;SDS011;3091;51.506;7.672;2023-05-14T12:46:28;12.43;;;12.03;;
6121;SDS011;3091;51.506;7.672;2023-05-14T12:48:54;11.70;;;11.30;;
6121;SDS011;3091;51.506;7.672;2023-05-14T12:51:21;12.00;;;11.60;;
6121;SDS011;3091;51.506;7.672;2023-05-14T12:53:47;12.10;;;11.70;;
6121;SDS011;3091;51.506;7.672;2023-05-14T12:56:13;11.77;;;11.37;;
6121;SDS011;3091;51.506;7.672;2023-05-14T12:58:39;12.30;;;11.90;;
6121;SDS011;3091;51.506;7.672;2023-05-14T13:01:06;11.50;;;11.10;;
6121;SDS011;3091;51.506;7.672;2023-05-14T13:03:32;10.13;;;9.83;;
6121;SDS011;3091;51.506;7.672;2023-05-14T13:05:58;10.00;;;9.70;;
6121;SDS011;3091;51.506;7.672;2023-05-14T13:08:25;10.03;;;9.73;;
6121;SDS011;3091;51.506;7.672;2023-05-14T13:10:54;10.17;;;9.87;;
6121;SDS011;3091;51.506;7.672;2023-05-14T13:13:21;10.60;;;10.30;;
6121;SDS011;3091;51.506;7.672;2023-05-14T13:15:47;10.23;;;9.93;;
6121;SDS011;3091;51.506;7.672;2023-05-14T13:18:13;11.00;;;10.70;;
6121;SDS011;3091;51.506;7.672;2023-05-14T13:20:39;11.77;;;11.37;;
6121;SDS011;3091;51.506;7.672;2023-05-14T13:23:05;12.00;;;11.60;;
6121;SDS011;3091;51.506;7.672;2023-05-14T13:25:31;12.53;;;12.13;;
6121;SDS011;3091;51.506;7.672;2023-05-14T13:27:58;12.10;;;11.70;;
6121;SDS011;3091;51.506;7.672;2023-05-14T13:30:24;12.00;;;11.60;;
6121;SDS011;3091;51.506;7.672;2023-05-14T13:32:50;12.03;;;11.63;;
6121;SDS011;3091;51.506;7.672;2023-05-14T13:35:16;11.63;;;11.23;;
6121;SDS011;3091;51.506;7.672;2023-05-14T13:37:42;10.70;;;10.40;;
6121;SDS011;3091;51.506;7.672;2023-05-14T13:40:08;10.60;;;10.30;;
6121;SDS011;3091;51.506;7.672;2023-05-14T13:42:35;12.07;;;11.67;;
6121;SDS011;3091;51.506;7.672;2023-05-14T13:45:01;11.70;;;11.30;;
6121;SDS011;3091;51.506;7.672;2023-05-14T13:47:28;11.80;;;11.40;;
6121;SDS011;3091;51.506;7.672;2023-05-14T13:49:54;11.60;;;11.20;;
6121;SDS011;3091;51.506;7.672;2023-05-14T13:52:20;11.40;;;11.10;;
6121;SDS011;3091;51.506;7.672;2023-05-14T13:54:46;11.70;;;11.40;;
6121;SDS011;3091;51.506;7.672;2023-05-14T13:57:13;12.97;;;12.57;;
6121;SDS011;3091;51.506;7.672;2023-05-14T13:59:39;13.17;;;12.77;;
6121;SDS011;3091;51.506;7.672;2023-05-14T14:02:06;13.40;;;13.00;;
6121;SDS011;3091;51.506;7.672;2023-05-14T14:04:32;13.63;;;13.23;;
6121;SDS011;3091;51.506;7.672;2023-05-14T14:06:58;13.30;;;12.80;;
6121;SDS011;3091;51.506;7.672;2023-05-14T14:09:24;13.30;;;12.90;;
6121;SDS011;3091;51.506;7.672;2023-05-14T14:11:50;12.93;;;12.53;;
6121;SDS011;3091;51.506;7.672;2023-05-14T14:14:16;13.40;;;13.00;;
6121;SDS011;3091;51.506;7.672;2023-05-14T14:16:42;13.13;;;12.73;;
6121;SDS011;3091;51.506;7.672;2023-05-14T14:19:08;13.10;;;12.70;;
6121;SDS011;3091;51.506;7.672;2023-05-14T14:21:34;13.20;;;12.80;;
6121;SDS011;3091;51.506;7.672;2023-05-14T14:24:05;13.13;;;12.73;;
6121;SDS011;3091;51.506;7.672;2023-05-14T14:26:31;13.00;;;12.60;;
6121;SDS011;3091;51.506;7.672;2023-05-14T14:28:57;12.90;;;12.50;;
6121;SDS011;3091;51.506;7.672;2023-05-14T14:31:23;13.20;;;12.80;;
6121;SDS011;3091;51.506;7.672;2023-05-14T14:33:49;12.93;;;12.53;;
6121;SDS011;3091;51.506;7.672;2023-05-14T14:36:15;14.27;;;13.73;;
6121;SDS011;3091;51.506;7.672;2023-05-14T14:38:44;13.50;;;13.00;;
6121;SDS011;3091;51.506;7.672;2023-05-14T14:41:10;12.97;;;12.57;;
6121;SDS011;3091;51.506;7.672;2023-05-14T14:43:36;12.93;;;12.53;;
6121;SDS011;3091;51.506;7.672;2023-05-14T14:46:04;12.80;;;12.40;;
6121;SDS011;3091;51.506;7.672;2023-05-14T14:48:34;13.10;;;12.70;;
6121;SDS011;3091;51.506;7.672;2023-05-14T14:51:03;13.10;;;12.70;;
6121;SDS011;3091;51.506;7.672;2023-05-14T14:53:29;12.53;;;12.13;;
6121;SDS011;3091;51.506;7.672;2023-05-14T14:55:56;12.80;;;12.40;;